Time;durP1;ratioP1;P1;durP2;ratioP2;P2;SDS_P1;SDS_P2;PMS_P1;PMS_P2;Temp;Humidity;BMP_temperature;BMP_pressure;BME280_temperature;BME280_humidity;BME280_pressure;Samples;Min_cycle;Max_cycle;Signal;HPM_P1;HPM_P2
2023/03/04 00:02:22;;;;;;;9.48;1.88;;;6.40;99.90;;;;;;4982871;28;20509;-78
2023/03/04 00:04:47;;;;;;;15.20;1.70;;;6.40;99.90;;;;;;4981048;28;20469;-78
2023/03/04 00:07:15;;;;;;;11.43;1.50;;;6.40;99.90;;;;;;5000474;28;20557;-77
2023/03/04 00:09:42;;;;;;;13.63;1.95;;;6.40;99.90;;;;;;4971451;28;20418;-77
2023/03/04 00:12:08;;;;;;;8.02;1.08;;;6.40;99.90;;;;;;5008126;28;20478;-76
2023/03/04 00:14:33;;;;;;;11.27;1.50;;;6.40;99.90;;;;;;4993393;28;20411;-76
2023/03/04 00:16:59;;;;;;;12.32;1.50;;;6.50;99.90;;;;;;4978348;28;20413;-77
2023/03/04 00:19:24;;;;;;;11.30;1.07;;;6.40;99.90;;;;;;4989996;28;20413;-76
2023/03/04 00:21:50;;;;;;;8.20;1.20;;;6.40;99.90;;;;;;4989933;28;20923;-77
2023/03/04 00:24:16;;;;;;;12.00;1.50;;;6.50;99.90;;;;;;4989648;28;20426;-77
2023/03/04 00:26:41;;;;;;;11.90;1.70;;;6.40;99.90;;;;;;4968148;28;20849;-77
2023/03/04 00:29:07;;;;;;;11.27;1.63;;;6.40;99.90;;;;;;4994138;28;20901;-77
2023/03/04 00:31:32;;;;;;;15.57;1.50;;;6.50;99.90;;;;;;4995302;28;20510;-77
2023/03/04 00:33:58;;;;;;;12.70;2.10;;;6.40;99.90;;;;;;5005102;28;20462;-77
2023/03/04 00:36:24;;;;;;;15.07;2.40;;;6.40;99.90;;;;;;5010293;28;20449;-77
2023/03/04 00:38:49;;;;;;;13.15;1.98;;;6.40;99.90;;;;;;4993392;28;20812;-77
2023/03/04 00:41:15;;;;;;;16.50;1.87;;;6.40;99.90;;;;;;5010863;28;20433;-77
2023/03/04 00:43:40;;;;;;;12.38;2.05;;;6.40;99.90;;;;;;4974366;28;20412;-77
2023/03/04 00:46:06;;;;;;;14.73;1.80;;;6.40;99.90;;;;;;4978354;28;20414;-77
2023/03/04 00:48:32;;;;;;;13.18;1.77;;;6.40;99.90;;;;;;4977165;28;20414;-77
2023/03/04 00:50:57;;;;;;;12.47;1.80;;;6.40;99.90;;;;;;4982633;28;20487;-77
2023/03/04 00:53:23;;;;;;;13.35;2.00;;;6.40;99.90;;;;;;5010244;28;20443;-77
2023/03/04 00:55:49;;;;;;;19.00;2.50;;;6.40;99.90;;;;;;4982450;28;20424;-77
2023/03/04 00:58:14;;;;;;;11.35;1.70;;;6.30;99.90;;;;;;5000130;28;20406;-77
2023/03/04 01:00:40;;;;;;;14.80;2.20;;;6.30;99.90;;;;;;4995801;28;20473;-77
2023/03/04 01:03:05;;;;;;;14.23;2.33;;;6.30;99.90;;;;;;4977915;28;20414;-77
2023/03/04 01:05:33;;;;;;;15.00;1.95;;;6.30;99.90;;;;;;5016258;28;20434;-77
2023/03/04 01:07:58;;;;;;;13.70;1.67;;;6.20;99.90;;;;;;4986078;28;20468;-77
2023/03/04 01:10:24;;;;;;;12.73;1.77;;;6.30;99.90;;;;;;5003964;28;20414;-77
2023/03/04 01:12:49;;;;;;;12.02;1.45;;;6.20;99.90;;;;;;5004522;28;20927;-75
2023/03/04 01:15:15;;;;;;;11.60;1.77;;;6.20;99.90;;;;;;5009768;28;20444;-77
2023/03/04 01:17:41;;;;;;;12.07;2.22;;;6.20;99.90;;;;;;4992263;28;20408;-77
2023/03/04 01:20:07;;;;;;;11.33;1.23;;;6.20;99.90;;;;;;5009955;28;20947;-77
2023/03/04 01:22:33;;;;;;;9.23;1.30;;;6.20;99.90;;;;;;4997397;28;20415;-77
2023/03/04 01:24:59;;;;;;;12.20;1.92;;;6.20;99.90;;;;;;4991162;28;20408;-77
2023/03/04 01:27:25;;;;;;;10.70;1.57;;;6.20;99.90;;;;;;5003439;28;20420;-77
2023/03/04 01:29:50;;;;;;;10.68;2.03;;;6.20;99.90;;;;;;4958349;28;20430;-77
2023/03/04 01:32:16;;;;;;;9.63;1.52;;;6.20;99.90;;;;;;4991617;28;20437;-77
2023/03/04 01:34:41;;;;;;;10.93;1.20;;;6.30;99.90;;;;;;4992106;28;20421;-77
2023/03/04 01:37:08;;;;;;;11.80;1.50;;;6.30;99.90;;;;;;4979967;28;20971;-77
2023/03/04 01:39:34;;;;;;;6.50;1.08;;;6.30;99.90;;;;;;4986171;28;20497;-77
2023/03/04 01:41:59;;;;;;;9.50;1.40;;;6.30;99.90;;;;;;5004055;28;20880;-77
2023/03/04 01:44:25;;;;;;;7.97;1.47;;;6.30;99.90;;;;;;4974339;28;21016;-77
2023/03/04 01:46:54;;;;;;;11.52;1.60;;;6.30;99.90;;;;;;4992014;28;20782;-77
2023/03/04 01:49:20;;;;;;;11.00;1.55;;;6.30;99.90;;;;;;4997845;28;20829;-77
2023/03/04 01:51:49;;;;;;;13.27;1.77;;;6.30;99.90;;;;;;4979158;28;20414;-77
2023/03/04 01:54:16;;;;;;;15.23;1.90;;;6.30;99.90;;;;;;4996635;28;20401;-77
2023/03/04 01:56:44;;;;;;;13.70;1.80;;;6.20;99.90;;;;;;4998041;28;20564;-77
2023/03/04 01:59:15;;;;;;;12.18;1.63;;;6.30;99.90;;;;;;4993063;28;20418;-77
2023/03/04 02:01:44;;;;;;;11.77;2.00;;;6.20;99.90;;;;;;4994186;28;20441;-77
2023/03/04 02:04:11;;;;;;;12.60;1.90;;;6.20;99.90;;;;;;5002441;28;20414;-77
2023/03/04 02:06:39;;;;;;;11.27;1.60;;;6.20;99.90;;;;;;5004611;28;20403;-77
2023/03/04 02:09:06;;;;;;;11.73;1.70;;;6.20;99.90;;;;;;5018300;28;20928;-77
2023/03/04 02:11:32;;;;;;;11.38;1.55;;;6.20;99.90;;;;;;4995306;28;20912;-77
2023/03/04 02:13:58;;;;;;;9.60;1.40;;;6.20;99.90;;;;;;5008142;28;20416;-77
2023/03/04 02:16:24;;;;;;;12.32;1.80;;;6.20;99.90;;;;;;5023441;28;20490;-77
2023/03/04 02:18:50;;;;;;;9.07;1.27;;;6.20;99.90;;;;;;5019094;28;20440;-77
2023/03/04 02:21:27;;;;;;;9.77;1.53;;;6.20;99.90;;;;;;5008303;28;20793;-76
2023/03/04 02:24:38;;;;;;;11.25;1.50;;;6.20;99.90;;;;;;5007667;28;20496;-77
2023/03/04 02:27:04;;;;;;;10.18;1.77;;;6.20;99.90;;;;;;4967606;28;20917;-77
2023/03/04 02:29:29;;;;;;;10.00;1.45;;;6.20;99.90;;;;;;4969074;28;20433;-77
2023/03/04 02:31:55;;;;;;;14.00;1.90;;;6.20;99.90;;;;;;4972349;28;20458;-77
2023/03/04 02:34:28;;;;;;;7.97;1.00;;;6.20;99.90;;;;;;5002315;28;20406;-78
2023/03/04 02:36:57;;;;;;;9.52;1.20;;;6.20;99.90;;;;;;4972790;28;20505;-77
2023/03/04 02:39:31;;;;;;;8.23;1.30;;;6.20;99.90;;;;;;4972613;28;20497;-77
2023/03/04 02:41:57;;;;;;;9.40;1.50;;;6.20;99.90;;;;;;4989335;28;20462;-77
2023/03/04 02:44:29;;;;;;;9.80;1.25;;;6.20;99.90;;;;;;4994969;28;20409;-77
2023/03/04 02:46:56;;;;;;;12.20;1.53;;;6.20;99.90;;;;;;4995967;28;20461;-77
2023/03/04 02:49:23;;;;;;;9.32;1.30;;;6.20;99.90;;;;;;4989402;28;20422;-77
2023/03/04 02:51:57;;;;;;;8.48;0.95;;;6.20;99.90;;;;;;4984448;28;21010;-77
2023/03/04 02:54:23;;;;;;;11.93;1.80;;;6.20;99.90;;;;;;5001458;28;20411;-77
2023/03/04 02:56:50;;;;;;;8.83;1.20;;;6.20;99.90;;;;;;4990254;28;20799;-77
2023/03/04 02:59:16;;;;;;;10.73;1.30;;;6.20;99.90;;;;;;4989020;28;20445;-77
2023/03/04 03:01:42;;;;;;;9.32;1.23;;;6.20;99.90;;;;;;4990170;28;20430;-77
2023/03/04 03:04:08;;;;;;;11.65;1.35;;;6.20;99.90;;;;;;4972032;28;20814;-77
2023/03/04 03:06:36;;;;;;;10.30;1.20;;;6.20;99.90;;;;;;5002784;28;20412;-77
2023/03/04 03:09:02;;;;;;;12.75;1.50;;;6.20;99.90;;;;;;5008395;28;20416;-77
2023/03/04 03:11:28;;;;;;;8.40;1.20;;;6.20;99.90;;;;;;5007817;28;21254;-77
2023/03/04 03:13:53;;;;;;;9.82;1.23;;;6.20;99.90;;;;;;5008313;28;20511;-77
2023/03/04 03:16:19;;;;;;;8.13;1.20;;;6.20;99.90;;;;;;5008299;28;20405;-77
2023/03/04 03:18:45;;;;;;;11.93;1.17;;;6.20;99.90;;;;;;5008222;28;20432;-77
2023/03/04 03:21:10;;;;;;;13.63;1.70;;;6.20;99.90;;;;;;5008189;28;20843;-77
2023/03/04 03:23:36;;;;;;;13.90;1.73;;;6.20;99.90;;;;;;4989511;28;20412;-77
2023/03/04 03:26:02;;;;;;;11.65;2.40;;;6.20;99.90;;;;;;4992313;28;20415;-77
2023/03/04 03:28:27;;;;;;;13.23;1.55;;;6.20;99.90;;;;;;4997159;28;20416;-77
2023/03/04 03:30:54;;;;;;;9.53;1.17;;;6.20;99.90;;;;;;4988554;28;20404;-77
2023/03/04 03:33:19;;;;;;;11.00;1.63;;;6.20;99.90;;;;;;4990908;28;20772;-77
2023/03/04 03:35:45;;;;;;;11.57;1.60;;;6.20;99.90;;;;;;5008145;28;20966;-77
2023/03/04 03:38:11;;;;;;;11.25;1.55;;;6.20;99.90;;;;;;4997453;28;20408;-78
2023/03/04 03:40:36;;;;;;;9.60;1.33;;;6.20;99.90;;;;;;4979575;28;20471;-77
2023/03/04 03:43:02;;;;;;;9.87;1.90;;;6.20;99.90;;;;;;4990240;28;20475;-78
2023/03/04 03:45:28;;;;;;;11.80;1.63;;;6.20;99.90;;;;;;5007470;28;20409;-77
2023/03/04 03:47:53;;;;;;;9.60;1.40;;;6.20;99.90;;;;;;5007865;28;20873;-77
2023/03/04 03:50:19;;;;;;;12.07;1.65;;;6.20;99.90;;;;;;5007575;28;20415;-77
2023/03/04 03:52:44;;;;;;;11.50;1.70;;;6.20;99.90;;;;;;4979814;28;20527;-77
2023/03/04 03:55:10;;;;;;;12.93;1.60;;;6.20;99.90;;;;;;4980082;28;20928;-78
2023/03/04 03:57:36;;;;;;;10.75;1.00;;;6.20;99.90;;;;;;4992086;28;20512;-77
2023/03/04 04:00:07;;;;;;;9.30;1.17;;;6.20;99.90;;;;;;4979897;28;20612;-77
2023/03/04 04:02:32;;;;;;;8.35;1.20;;;6.20;99.90;;;;;;5019068;28;20439;-77
2023/03/04 04:04:58;;;;;;;7.90;1.10;;;6.20;99.90;;;;;;4985543;28;20931;-77
2023/03/04 04:07:24;;;;;;;9.20;1.40;;;6.20;99.90;;;;;;4978207;28;20543;-77
2023/03/04 04:09:49;;;;;;;9.27;1.27;;;6.20;99.90;;;;;;4999949;28;20766;-78
2023/03/04 04:12:16;;;;;;;7.63;1.30;;;6.20;99.90;;;;;;4998682;28;20419;-77
2023/03/04 04:14:42;;;;;;;7.22;1.20;;;6.20;99.90;;;;;;5003204;28;20411;-77
2023/03/04 04:17:09;;;;;;;8.03;1.00;;;6.20;99.90;;;;;;4983689;28;20876;-77
2023/03/04 04:19:34;;;;;;;8.43;1.00;;;6.20;99.90;;;;;;4993647;28;20457;-77
2023/03/04 04:22:01;;;;;;;5.40;0.73;;;6.20;99.90;;;;;;5008420;28;20485;-77
2023/03/04 04:24:26;;;;;;;7.28;0.80;;;6.20;99.90;;;;;;4993276;28;20412;-77
2023/03/04 04:26:52;;;;;;;8.67;1.10;;;6.30;99.90;;;;;;4990910;28;20757;-77
2023/03/04 04:29:18;;;;;;;10.37;1.40;;;6.30;99.90;;;;;;5003013;28;20401;-77
2023/03/04 04:31:43;;;;;;;7.32;1.02;;;6.20;99.90;;;;;;4977247;28;20424;-77
2023/03/04 04:34:09;;;;;;;7.60;1.20;;;6.30;99.90;;;;;;4976894;28;20935;-77
2023/03/04 04:36:35;;;;;;;12.10;1.35;;;6.20;99.90;;;;;;5010406;28;20409;-77
2023/03/04 04:39:00;;;;;;;7.20;0.97;;;6.20;99.90;;;;;;4996512;28;20427;-77
2023/03/04 04:41:35;;;;;;;12.17;1.23;;;6.20;99.90;;;;;;4992778;28;20473;-77
2023/03/04 04:44:00;;;;;;;11.20;1.50;;;6.10;99.90;;;;;;4992607;28;20425;-77
2023/03/04 04:46:26;;;;;;;11.00;2.07;;;6.10;99.90;;;;;;4966579;28;20414;-77
2023/03/04 04:48:52;;;;;;;12.57;1.85;;;6.00;99.90;;;;;;4981461;28;20413;-77
2023/03/04 04:51:17;;;;;;;9.13;1.47;;;6.00;99.90;;;;;;5004394;28;20490;-77
2023/03/04 04:53:43;;;;;;;10.70;1.67;;;6.00;99.90;;;;;;4997639;28;20401;-77
2023/03/04 04:56:21;;;;;;;11.65;1.60;;;6.00;99.90;;;;;;4977458;28;20418;-77
2023/03/04 04:58:47;;;;;;;12.18;2.30;;;6.00;99.90;;;;;;5003823;28;20414;-77
2023/03/04 05:01:14;;;;;;;10.20;1.52;;;6.00;99.90;;;;;;4964973;28;20450;-76
2023/03/04 05:03:40;;;;;;;14.38;1.92;;;6.00;99.90;;;;;;4992113;28;20961;-77
2023/03/04 05:06:08;;;;;;;10.65;1.60;;;5.90;99.90;;;;;;5021539;28;20874;-77
2023/03/04 05:08:35;;;;;;;13.93;1.80;;;6.00;99.90;;;;;;5008833;28;20853;-78
2023/03/04 05:11:01;;;;;;;13.05;1.50;;;6.00;99.90;;;;;;5010680;28;20482;-77
2023/03/04 05:13:27;;;;;;;14.25;1.98;;;6.00;99.90;;;;;;5010183;28;20476;-77
2023/03/04 05:15:55;;;;;;;12.13;1.37;;;5.90;99.90;;;;;;4998980;28;20894;-77
2023/03/04 05:18:23;;;;;;;10.23;1.50;;;5.90;99.90;;;;;;4997744;28;20404;-77
2023/03/04 05:20:50;;;;;;;12.30;1.50;;;5.90;99.90;;;;;;5009825;28;21042;-78
2023/03/04 05:23:16;;;;;;;8.63;1.10;;;5.90;99.90;;;;;;4992775;28;20409;-78
2023/03/04 05:25:42;;;;;;;13.60;1.60;;;5.90;99.90;;;;;;4999785;28;20461;-78
2023/03/04 05:28:11;;;;;;;14.32;1.85;;;5.90;99.90;;;;;;5010588;28;20405;-78
2023/03/04 05:30:41;;;;;;;12.10;1.65;;;5.90;99.90;;;;;;5010888;28;20441;-78
2023/03/04 05:33:07;;;;;;;14.07;2.13;;;5.90;99.90;;;;;;5010841;28;20951;-79
2023/03/04 05:35:38;;;;;;;15.65;1.90;;;5.90;99.90;;;;;;5010921;28;20409;-78
2023/03/04 05:38:06;;;;;;;16.48;2.30;;;5.90;99.90;;;;;;5001926;28;20420;-78
2023/03/04 05:40:32;;;;;;;13.30;2.00;;;5.90;99.90;;;;;;5009457;28;20432;-78
2023/03/04 05:42:58;;;;;;;14.02;1.92;;;5.90;99.90;;;;;;5010271;28;20797;-78
2023/03/04 05:45:24;;;;;;;14.30;1.70;;;5.90;99.90;;;;;;5011409;28;20413;-78
2023/03/04 05:47:50;;;;;;;14.52;1.85;;;6.00;99.90;;;;;;5010743;28;20413;-79
2023/03/04 05:50:16;;;;;;;14.00;1.90;;;5.90;99.90;;;;;;4990380;28;20467;-76
2023/03/04 05:52:42;;;;;;;15.32;1.95;;;6.00;99.90;;;;;;4982846;28;20413;-77
2023/03/04 05:55:08;;;;;;;13.27;1.70;;;6.00;99.90;;;;;;5009031;28;20413;-76
2023/03/04 05:57:34;;;;;;;10.50;1.52;;;6.00;99.90;;;;;;5009400;28;20424;-76
2023/03/04 06:00:00;;;;;;;14.23;1.80;;;6.00;99.90;;;;;;4992580;28;20427;-77
2023/03/04 06:02:25;;;;;;;13.57;1.77;;;6.00;99.90;;;;;;5010825;28;20520;-77
2023/03/04 06:04:51;;;;;;;11.67;1.50;;;6.00;99.90;;;;;;4994439;28;20434;-77
2023/03/04 06:07:17;;;;;;;13.10;1.77;;;5.90;99.90;;;;;;5003319;28;20766;-78
2023/03/04 06:09:44;;;;;;;12.38;1.30;;;5.90;99.90;;;;;;5006723;28;20403;-77
2023/03/04 06:12:10;;;;;;;10.35;1.20;;;5.90;99.90;;;;;;4994589;28;20414;-77
2023/03/04 06:14:36;;;;;;;11.32;1.25;;;5.90;99.90;;;;;;4996504;28;20401;-77
2023/03/04 06:17:02;;;;;;;11.32;1.40;;;5.90;99.90;;;;;;4998787;28;20892;-77
2023/03/04 06:19:27;;;;;;;9.52;1.00;;;5.90;99.90;;;;;;5008993;28;20831;-77
2023/03/04 06:21:53;;;;;;;10.33;1.23;;;5.90;99.90;;;;;;5009726;28;20528;-77
2023/03/04 06:24:19;;;;;;;12.15;1.70;;;5.90;99.90;;;;;;5009256;28;20904;-77
2023/03/04 06:26:44;;;;;;;10.18;1.50;;;6.00;99.90;;;;;;5008338;28;20776;-77
2023/03/04 06:29:10;;;;;;;9.07;1.23;;;5.90;99.90;;;;;;5008732;28;20417;-77
2023/03/04 06:31:35;;;;;;;11.77;1.48;;;5.90;99.90;;;;;;5009581;28;20409;-77
2023/03/04 06:34:01;;;;;;;11.37;1.70;;;5.90;99.90;;;;;;4993331;28;20417;-77
2023/03/04 06:36:26;;;;;;;12.23;1.55;;;6.00;99.90;;;;;;4992613;28;20413;-77
2023/03/04 06:38:52;;;;;;;11.77;1.50;;;5.90;99.90;;;;;;4993794;28;20800;-77
2023/03/04 06:41:18;;;;;;;13.40;1.55;;;6.00;99.90;;;;;;5008938;28;20429;-78
2023/03/04 06:43:43;;;;;;;11.63;1.47;;;6.00;99.90;;;;;;4991032;28;20425;-77
2023/03/04 06:46:09;;;;;;;12.25;1.73;;;6.00;99.90;;;;;;4990849;28;20505;-77
2023/03/04 06:48:35;;;;;;;13.75;1.92;;;6.10;99.90;;;;;;5008100;28;20417;-77
2023/03/04 06:51:08;;;;;;;14.65;2.30;;;6.00;99.90;;;;;;4990991;28;20420;-77
2023/03/04 06:53:35;;;;;;;11.27;2.05;;;6.10;99.90;;;;;;5010103;28;20412;-77
2023/03/04 06:56:01;;;;;;;16.90;1.90;;;6.10;99.90;;;;;;5000832;28;20499;-77
2023/03/04 06:58:26;;;;;;;12.70;1.65;;;6.10;99.90;;;;;;4992083;28;20414;-77
2023/03/04 07:00:52;;;;;;;13.25;2.00;;;6.10;99.90;;;;;;4999996;28;20444;-77
2023/03/04 07:03:18;;;;;;;16.17;2.27;;;6.10;99.90;;;;;;4993096;28;20409;-77
2023/03/04 07:05:43;;;;;;;12.60;2.22;;;6.10;99.90;;;;;;5012147;28;20931;-77
2023/03/04 07:08:09;;;;;;;17.10;2.53;;;6.20;99.90;;;;;;4995466;28;20504;-77
2023/03/04 07:10:35;;;;;;;19.70;2.53;;;6.10;99.90;;;;;;4990969;28;20415;-77
2023/03/04 07:13:01;;;;;;;17.08;2.15;;;6.20;99.90;;;;;;4994829;28;20417;-77
2023/03/04 07:15:27;;;;;;;14.75;2.03;;;6.20;99.90;;;;;;4996691;28;20417;-77
2023/03/04 07:17:53;;;;;;;16.23;2.90;;;6.20;99.90;;;;;;4997767;28;20426;-77
2023/03/04 07:20:18;;;;;;;13.70;2.53;;;6.20;99.90;;;;;;4997409;28;20919;-77
2023/03/04 07:22:44;;;;;;;13.40;2.35;;;6.30;99.90;;;;;;4978454;28;20785;-77
2023/03/04 07:25:10;;;;;;;15.40;2.17;;;6.30;99.90;;;;;;5007210;28;20401;-77
2023/03/04 07:27:37;;;;;;;16.07;2.47;;;6.30;99.90;;;;;;4979271;28;20429;-77
2023/03/04 07:30:04;;;;;;;16.20;2.15;;;6.30;99.90;;;;;;4990907;28;20481;-77
2023/03/04 07:32:33;;;;;;;17.52;3.10;;;6.30;99.90;;;;;;5003883;28;20416;-77
2023/03/04 07:34:58;;;;;;;16.38;2.65;;;6.30;99.90;;;;;;5005311;28;20435;-77
2023/03/04 07:37:24;;;;;;;17.67;2.67;;;6.30;99.90;;;;;;5008022;28;20405;-77
2023/03/04 07:39:50;;;;;;;16.85;2.38;;;6.30;99.90;;;;;;5003897;28;20401;-77
2023/03/04 07:42:15;;;;;;;16.77;3.10;;;6.40;99.90;;;;;;4991460;28;20543;-78
2023/03/04 07:44:41;;;;;;;16.33;2.78;;;6.40;99.90;;;;;;5012354;28;20438;-77
2023/03/04 07:47:06;;;;;;;14.67;2.43;;;6.40;99.90;;;;;;5000748;28;20448;-78
2023/03/04 07:49:32;;;;;;;15.40;2.83;;;6.40;99.90;;;;;;5015350;28;20397;-78
2023/03/04 07:52:01;;;;;;;13.90;2.23;;;6.50;99.90;;;;;;4993411;28;20417;-78
2023/03/04 07:54:26;;;;;;;17.83;2.87;;;6.50;99.90;;;;;;4994229;28;20409;-77
2023/03/04 07:56:52;;;;;;;13.70;2.50;;;6.50;99.90;;;;;;5011631;28;20415;-77
2023/03/04 07:59:18;;;;;;;16.83;2.00;;;6.50;99.90;;;;;;4993448;28;20998;-77
2023/03/04 08:01:43;;;;;;;11.70;2.20;;;6.50;99.90;;;;;;5010975;28;20495;-78
2023/03/04 08:04:09;;;;;;;13.43;1.70;;;6.60;99.90;;;;;;5018859;28;20934;-77
2023/03/04 08:06:35;;;;;;;15.50;2.00;;;6.60;99.90;;;;;;5013382;28;20478;-77
2023/03/04 08:09:06;;;;;;;10.70;1.75;;;6.60;99.90;;;;;;5011178;28;20415;-77
2023/03/04 08:11:32;;;;;;;12.18;2.25;;;6.60;99.90;;;;;;4980649;28;20417;-76
2023/03/04 08:13:58;;;;;;;18.87;2.77;;;6.60;99.90;;;;;;4996880;28;20493;-75
2023/03/04 08:16:25;;;;;;;12.30;1.70;;;6.60;99.90;;;;;;4980536;28;20571;-79
2023/03/04 08:18:53;;;;;;;16.97;2.80;;;6.60;99.90;;;;;;4991996;28;21006;-77
2023/03/04 08:21:20;;;;;;;18.33;2.58;;;6.60;99.90;;;;;;4999992;28;20998;-77
2023/03/04 08:23:47;;;;;;;21.08;3.15;;;6.60;99.90;;;;;;5013991;28;20772;-77
2023/03/04 08:26:23;;;;;;;20.05;3.22;;;6.60;99.90;;;;;;5011356;28;20397;-77
2023/03/04 08:28:49;;;;;;;19.33;3.47;;;6.60;99.90;;;;;;4997586;28;20549;-77
2023/03/04 08:31:17;;;;;;;19.42;3.17;;;6.60;99.90;;;;;;5000149;28;20417;-77
2023/03/04 08:33:43;;;;;;;17.63;3.20;;;6.60;99.90;;;;;;4994122;28;20461;-76
2023/03/04 08:36:09;;;;;;;20.55;3.42;;;6.60;99.90;;;;;;4976387;28;20504;-77
2023/03/04 08:38:35;;;;;;;20.43;3.47;;;6.60;99.90;;;;;;4995589;28;20409;-77
2023/03/04 08:41:02;;;;;;;22.60;3.85;;;6.60;99.90;;;;;;5003101;28;20497;-77
2023/03/04 08:43:29;;;;;;;22.77;5.15;;;6.60;99.90;;;;;;4985477;28;20419;-77
2023/03/04 08:45:55;;;;;;;18.02;4.60;;;6.70;99.90;;;;;;4983137;28;20461;-77
2023/03/04 08:48:21;;;;;;;23.27;4.20;;;6.60;99.90;;;;;;4993687;28;20446;-76
2023/03/04 08:50:47;;;;;;;20.10;3.28;;;6.60;99.90;;;;;;5010796;28;20412;-77
2023/03/04 08:53:13;;;;;;;21.73;3.65;;;6.60;99.90;;;;;;5003882;28;20406;-78
2023/03/04 08:55:40;;;;;;;19.47;3.80;;;6.70;99.90;;;;;;4997613;28;20416;-78
2023/03/04 08:58:06;;;;;;;17.63;3.20;;;6.70;99.90;;;;;;4992351;28;20768;-78
2023/03/04 09:00:34;;;;;;;23.33;3.38;;;6.80;99.90;;;;;;4984324;28;20523;-78
2023/03/04 09:02:59;;;;;;;21.63;3.10;;;6.80;99.90;;;;;;4999587;28;20484;-78
2023/03/04 09:05:25;;;;;;;18.10;3.10;;;6.90;99.90;;;;;;4982942;28;20420;-78
2023/03/04 09:07:51;;;;;;;13.57;2.00;;;6.90;99.90;;;;;;4992114;28;20407;-78
2023/03/04 09:10:17;;;;;;;9.05;1.25;;;7.00;99.90;;;;;;5005849;28;20422;-78
2023/03/04 09:12:42;;;;;;;8.67;1.10;;;6.90;99.90;;;;;;4994157;28;20413;-78
2023/03/04 09:15:08;;;;;;;8.63;1.45;;;6.90;99.90;;;;;;4992911;28;20411;-78
2023/03/04 09:17:34;;;;;;;11.27;1.20;;;6.90;99.90;;;;;;4994185;28;20410;-77
2023/03/04 09:20:00;;;;;;;11.23;1.47;;;6.90;99.90;;;;;;4999684;28;20506;-77
2023/03/04 09:22:25;;;;;;;9.10;1.03;;;6.90;99.90;;;;;;5010225;28;20433;-77
2023/03/04 09:24:51;;;;;;;7.00;0.77;;;6.90;99.90;;;;;;4999872;28;20428;-77
2023/03/04 09:27:16;;;;;;;5.80;0.70;;;7.00;99.90;;;;;;5009935;28;20463;-77
2023/03/04 09:29:43;;;;;;;7.80;1.07;;;7.10;99.90;;;;;;5006941;28;20825;-78
2023/03/04 09:32:09;;;;;;;7.95;1.15;;;7.20;99.90;;;;;;5005145;28;20409;-78
2023/03/04 09:34:34;;;;;;;13.70;1.27;;;7.50;99.90;;;;;;5010481;28;21029;-78
2023/03/04 09:37:00;;;;;;;9.57;1.30;;;7.70;99.90;;;;;;5009791;28;20776;-78
2023/03/04 09:39:26;;;;;;;7.30;1.08;;;7.70;99.90;;;;;;4982840;28;20494;-78
2023/03/04 09:41:56;;;;;;;9.57;1.23;;;7.70;99.90;;;;;;5000304;28;20485;-79
2023/03/04 09:44:31;;;;;;;12.15;1.05;;;8.10;99.90;;;;;;5010452;28;20412;-79
2023/03/04 09:47:04;;;;;;;8.32;1.35;;;8.20;99.90;;;;;;4996639;28;20931;-79
2023/03/04 09:49:30;;;;;;;12.38;1.63;;;8.10;99.90;;;;;;4983722;28;20983;-79
2023/03/04 09:52:19;;;;;;;10.80;1.60;;;7.90;99.90;;;;;;5010394;28;20466;-78
2023/03/04 09:55:03;;;;;;;10.35;1.77;;;7.70;99.90;;;;;;4997439;28;20427;-79
2023/03/04 09:57:38;;;;;;;14.90;1.63;;;7.50;99.90;;;;;;5009271;28;20923;-78
2023/03/04 10:00:19;;;;;;;18.13;2.53;;;7.40;99.90;;;;;;5007434;28;20440;-77
2023/03/04 10:03:08;;;;;;;12.55;2.60;;;7.30;99.90;;;;;;5009635;28;20516;-78
2023/03/04 10:05:44;;;;;;;11.60;2.50;;;7.30;99.90;;;;;;4999381;28;20479;-77
2023/03/04 10:08:40;;;;;;;14.70;2.60;;;7.20;99.90;;;;;;4962025;28;20417;-77
2023/03/04 10:11:32;;;;;;;16.38;2.78;;;7.20;99.90;;;;;;4991696;28;21062;-77
2023/03/04 10:14:19;;;;;;;14.52;2.47;;;7.20;99.90;;;;;;4985416;28;20933;-78
2023/03/04 10:16:51;;;;;;;13.13;2.17;;;7.30;99.90;;;;;;4974218;28;20422;-78
2023/03/04 10:19:29;;;;;;;12.43;2.33;;;7.30;99.90;;;;;;4993533;28;20414;-77
2023/03/04 10:21:55;;;;;;;13.55;2.13;;;7.40;99.90;;;;;;4991363;28;20489;-77
2023/03/04 10:24:26;;;;;;;12.73;2.63;;;7.40;99.90;;;;;;4987176;28;20432;-77
2023/03/04 10:26:56;;;;;;;14.43;2.95;;;7.40;99.90;;;;;;4990559;28;20415;-78
2023/03/04 10:29:23;;;;;;;15.88;2.58;;;7.30;99.90;;;;;;5005971;28;20764;-77
2023/03/04 10:31:50;;;;;;;13.25;2.47;;;7.20;99.90;;;;;;4999260;28;20450;-77
2023/03/04 10:34:17;;;;;;;17.35;2.67;;;7.10;99.90;;;;;;5006392;28;21389;-77
2023/03/04 10:36:46;;;;;;;13.50;2.80;;;7.10;99.90;;;;;;4982126;28;20418;-77
2023/03/04 10:39:21;;;;;;;14.05;2.30;;;7.00;99.90;;;;;;4994222;28;20503;-78
2023/03/04 10:41:58;;;;;;;14.73;2.75;;;7.10;99.90;;;;;;4973818;28;20445;-78
2023/03/04 10:44:24;;;;;;;13.68;2.58;;;7.50;99.90;;;;;;5008757;28;20405;-78
2023/03/04 10:46:51;;;;;;;17.88;2.92;;;7.80;99.90;;;;;;5007952;28;20412;-78
2023/03/04 10:49:19;;;;;;;16.88;4.30;;;7.90;99.90;;;;;;5001791;28;20410;-78
2023/03/04 10:52:09;;;;;;;11.13;2.55;;;7.80;99.90;;;;;;4993178;28;21271;-79
2023/03/04 10:54:48;;;;;;;9.70;1.60;;;7.60;99.90;;;;;;5000149;28;20421;-78
2023/03/04 10:57:33;;;;;;;15.32;2.00;;;7.60;99.90;;;;;;4995957;28;20443;-79
2023/03/04 11:00:01;;;;;;;13.17;2.37;;;8.40;99.90;;;;;;4998272;28;20439;-79
2023/03/04 11:02:28;;;;;;;16.55;2.88;;;9.50;99.90;;;;;;4980932;28;20419;-79
2023/03/04 11:05:05;;;;;;;14.75;3.05;;;10.50;99.90;;;;;;4997418;28;20425;-79
2023/03/04 11:07:35;;;;;;;16.20;2.55;;;10.80;99.90;;;;;;5006036;28;20422;-77
2023/03/04 11:10:14;;;;;;;11.90;2.63;;;10.30;99.90;;;;;;5004661;28;20741;-78
2023/03/04 11:12:40;;;;;;;15.73;2.53;;;9.70;99.90;;;;;;4981672;28;20430;-78
2023/03/04 11:15:26;;;;;;;16.33;2.80;;;9.40;99.90;;;;;;4990257;28;20424;-78
2023/03/04 11:18:09;;;;;;;13.32;2.80;;;9.40;99.90;;;;;;4972911;28;20496;-78
2023/03/04 11:20:45;;;;;;;11.98;2.15;;;9.60;99.90;;;;;;5007190;28;20437;-78
2023/03/04 11:23:23;;;;;;;14.27;2.40;;;9.90;99.90;;;;;;4986785;28;20931;-78
2023/03/04 11:26:03;;;;;;;14.80;2.80;;;9.70;99.90;;;;;;4990804;28;20479;-78
2023/03/04 11:28:51;;;;;;;13.20;2.13;;;9.20;99.90;;;;;;4999395;28;20481;-78
2023/03/04 11:31:26;;;;;;;11.77;2.67;;;8.70;99.90;;;;;;4994198;28;20477;-78
2023/03/04 11:34:00;;;;;;;9.37;1.70;;;8.50;99.90;;;;;;5001939;28;20559;-78
2023/03/04 11:36:34;;;;;;;12.52;2.22;;;8.60;99.90;;;;;;4974136;28;20463;-78
2023/03/04 11:39:01;;;;;;;11.55;2.00;;;8.80;99.90;;;;;;4997294;28;20512;-78
2023/03/04 11:41:37;;;;;;;13.02;1.77;;;9.10;99.90;;;;;;4994878;28;20964;-78
2023/03/04 11:44:07;;;;;;;11.73;1.90;;;9.60;99.90;;;;;;4996677;28;20416;-78
2023/03/04 11:46:55;;;;;;;13.55;2.45;;;10.80;99.90;;;;;;4992409;28;20914;-78
2023/03/04 11:49:20;;;;;;;15.02;3.08;;;11.30;99.90;;;;;;4992321;28;20453;-78
2023/03/04 11:52:09;;;;;;;17.02;3.15;;;11.00;99.90;;;;;;4995748;28;20510;-78
2023/03/04 11:54:56;;;;;;;14.02;2.95;;;10.80;99.90;;;;;;5005407;28;20420;-78
2023/03/04 11:57:24;;;;;;;16.95;2.90;;;10.50;99.90;;;;;;4998452;28;20877;-78
2023/03/04 11:59:59;;;;;;;14.50;2.25;;;10.50;99.90;;;;;;4994857;28;20425;-78
2023/03/04 12:02:56;;;;;;;14.27;2.50;;;10.70;99.90;;;;;;4982532;28;20419;-78
2023/03/04 12:05:25;;;;;;;15.65;2.83;;;10.70;99.90;;;;;;4978881;28;20413;-78
2023/03/04 12:08:12;;;;;;;14.93;2.90;;;10.90;99.90;;;;;;4978398;28;20461;-79
2023/03/04 12:10:48;;;;;;;12.50;2.40;;;10.50;99.90;;;;;;4972617;28;20418;-78
2023/03/04 12:13:34;;;;;;;14.57;2.53;;;9.90;99.90;;;;;;4987784;28;21011;-79
2023/03/04 12:16:16;;;;;;;13.93;2.53;;;9.40;99.90;;;;;;5006212;28;20417;-78
2023/03/04 12:19:05;;;;;;;12.15;2.65;;;9.30;99.90;;;;;;4989257;28;20432;-79
2023/03/04 12:21:52;;;;;;;14.68;3.60;;;9.70;99.90;;;;;;4988132;28;20436;-79
2023/03/04 12:24:27;;;;;;;15.65;3.88;;;10.90;99.90;;;;;;5009508;28;20473;-79
2023/03/04 12:27:21;;;;;;;9.95;1.90;;;12.30;99.90;;;;;;4984551;28;20751;-78
2023/03/04 12:30:14;;;;;;;13.35;2.53;;;12.80;99.90;;;;;;4965227;28;20508;-79
2023/03/04 12:32:58;;;;;;;11.13;1.98;;;12.30;99.90;;;;;;4992220;28;21016;-79
2023/03/04 12:35:26;;;;;;;12.13;2.05;;;11.70;99.90;;;;;;5009814;28;20415;-78
2023/03/04 12:38:07;;;;;;;14.48;2.60;;;11.40;99.90;;;;;;4992824;28;20424;-78
2023/03/04 12:41:11;;;;;;;16.10;2.53;;;11.10;99.90;;;;;;5009012;28;20428;-78
2023/03/04 12:43:56;;;;;;;15.88;2.97;;;10.60;99.90;;;;;;4964257;28;20418;-78
2023/03/04 12:46:29;;;;;;;17.40;2.67;;;10.20;99.90;;;;;;5002131;28;20430;-78
2023/03/04 12:49:19;;;;;;;15.57;2.70;;;9.90;99.90;;;;;;4992407;28;20781;-79
2023/03/04 12:52:03;;;;;;;14.87;3.13;;;9.80;99.90;;;;;;4992527;28;20475;-79
2023/03/04 12:54:39;;;;;;;16.20;3.47;;;9.80;99.90;;;;;;4982979;28;20504;-78
2023/03/04 12:57:11;;;;;;;16.50;2.65;;;10.30;99.90;;;;;;4979112;28;20442;-78
2023/03/04 12:59:49;;;;;;;18.02;3.25;;;10.40;99.90;;;;;;5004345;28;20507;-79